Terminal Aerodrome Forecast
Issued by NWS North Platte, NE

Home | Current Version | Previous Version | Text Only | Print | Product List | Glossary On
Versions: 1 2 3 4 5 6 7 8 9 10 11 12 13 14 15 16 17 18 19 20 21 22 23 24 25 26 27 28
000
FTUS43 KLBF 111500 AAB
TAFLBF
TAF AMD
KLBF 111548Z 1116/1212 VRB06KT P6SM VCSH BKN020 BKN120
     FM111700 12006KT P6SM BKN100
     FM120000 09006KT P6SM VCTS BKN060CB BKN100 BKN200
     FM120400 06008KT P6SM SCT100 BKN250=

USA.gov is the U.S. government's official web portal to all federal, state and local government web resources and services.